Time;durP1;ratioP1;P1;durP2;ratioP2;P2;SDS_P1;SDS_P2;PMS_P1;PMS_P2;Temp;Humidity;BMP_temperature;BMP_pressure;BME280_temperature;BME280_humidity;BME280_pressure;Samples;Min_cycle;Max_cycle;Signal;HPM_P1;HPM_P2
2022/11/18 00:01:12;;;;;;;4.33;0.80;;;20.60;48.10;;;;;;5040803;28;20179;-71
2022/11/18 00:03:40;;;;;;;6.93;1.30;;;21.10;47.80;;;;;;5044924;28;20179;-70
2022/11/18 00:06:13;;;;;;;1.97;1.00;;;21.40;46.60;;;;;;5038262;28;20185;-69
2022/11/18 00:08:41;;;;;;;2.17;0.80;;;21.40;46.20;;;;;;5049689;28;20263;-69
2022/11/18 00:14:23;;;;;;;4.80;1.50;;;21.40;46.30;;;;;;5051483;28;20192;-69
2022/11/18 00:16:55;;;;;;;6.53;1.10;;;20.80;47.50;;;;;;5045691;28;20194;-70
2022/11/18 00:19:28;;;;;;;3.47;0.80;;;20.90;46.80;;;;;;5044228;28;20229;-70
2022/11/18 00:21:56;;;;;;;2.77;1.23;;;20.80;47.10;;;;;;5048214;28;20184;-69
2022/11/18 00:24:24;;;;;;;4.40;1.30;;;21.10;47.20;;;;;;5046104;28;20207;-69
2022/11/18 00:26:52;;;;;;;4.30;1.10;;;21.30;45.70;;;;;;5041752;28;20605;-70
2022/11/18 00:29:19;;;;;;;3.23;0.90;;;21.40;46.10;;;;;;5048414;28;20193;-72
2022/11/18 00:31:47;;;;;;;2.33;0.90;;;21.50;44.40;;;;;;5038965;28;20187;-69
2022/11/18 00:34:16;;;;;;;4.60;1.10;;;21.40;45.50;;;;;;5050869;28;20234;-70
2022/11/18 00:36:45;;;;;;;4.63;1.13;;;21.70;45.40;;;;;;5047646;28;20183;-70
2022/11/18 00:39:14;;;;;;;6.07;1.30;;;21.70;44.80;;;;;;5045409;28;20188;-71
2022/11/18 00:44:26;;;;;;;4.37;1.13;;;21.50;46.20;;;;;;5039030;28;20261;-71
2022/11/18 00:46:54;;;;;;;4.63;0.80;;;21.80;45.60;;;;;;5040996;28;20648;-71
2022/11/18 00:49:22;;;;;;;6.47;1.20;;;21.80;45.40;;;;;;5046716;28;20263;-71
2022/11/18 00:51:49;;;;;;;5.20;1.30;;;21.80;44.60;;;;;;5050057;28;20266;-70
2022/11/18 00:54:17;;;;;;;7.67;1.47;;;21.90;44.60;;;;;;5048410;28;20176;-72
2022/11/18 00:56:44;;;;;;;2.90;1.10;;;22.00;45.60;;;;;;5044224;28;20189;-69
2022/11/18 00:59:11;;;;;;;4.37;1.27;;;21.90;45.50;;;;;;5049647;28;20179;-70
2022/11/18 01:01:39;;;;;;;5.13;1.33;;;22.00;45.30;;;;;;5045769;28;20257;-68
2022/11/18 01:04:06;;;;;;;3.97;1.27;;;22.20;46.20;;;;;;5048142;28;20814;-70
2022/11/18 01:06:34;;;;;;;5.60;1.37;;;22.60;45.30;;;;;;5047607;28;20183;-70
2022/11/18 01:09:01;;;;;;;9.70;5.20;;;22.40;45.30;;;;;;5045249;28;20263;-69
2022/11/18 01:14:14;;;;;;;7.90;1.20;;;22.00;46.00;;;;;;5058494;28;20255;-69
2022/11/18 01:16:41;;;;;;;10.33;3.23;;;21.80;46.60;;;;;;5034905;28;20237;-69
2022/11/18 01:19:08;;;;;;;5.20;1.23;;;21.90;46.80;;;;;;5032290;28;20252;-71
2022/11/18 01:21:36;;;;;;;4.43;1.30;;;21.80;46.90;;;;;;5030403;28;20233;-71
2022/11/18 01:24:03;;;;;;;1.93;0.80;;;22.10;45.50;;;;;;5035267;28;20224;-69
2022/11/18 01:26:31;;;;;;;5.20;1.40;;;21.80;45.70;;;;;;5035454;28;20175;-70
2022/11/18 01:28:58;;;;;;;4.93;1.00;;;21.90;46.20;;;;;;5043539;28;20187;-70
2022/11/18 01:31:25;;;;;;;7.07;0.97;;;22.20;46.30;;;;;;5046184;28;20728;-71
2022/11/18 01:33:53;;;;;;;2.20;1.00;;;22.30;45.10;;;;;;5035883;28;20165;-70
2022/11/18 01:36:29;;;;;;;2.80;1.00;;;22.30;45.10;;;;;;5035481;28;20181;-72
2022/11/18 01:39:03;;;;;;;3.27;0.77;;;22.20;45.00;;;;;;5036781;28;20169;-72
2022/11/18 01:41:38;;;;;;;2.20;0.80;;;22.10;40.70;;;;;;5036995;28;20180;-75
2022/11/18 01:44:27;;;;;;;2.40;0.90;;;22.10;40.50;;;;;;5036372;28;20629;-72
2022/11/18 01:46:54;;;;;;;2.40;0.90;;;22.50;40.10;;;;;;5015285;28;20252;-71
2022/11/18 01:49:23;;;;;;;2.70;0.77;;;22.30;38.80;;;;;;5051921;28;20548;-72
2022/11/18 01:51:57;;;;;;;3.37;1.37;;;22.00;39.70;;;;;;5042441;28;20184;-70
2022/11/18 01:54:33;;;;;;;2.50;1.00;;;22.50;40.60;;;;;;5034338;28;20191;-69
2022/11/18 01:57:04;;;;;;;1.70;0.60;;;22.70;41.40;;;;;;5035413;28;20176;-68
2022/11/18 01:59:35;;;;;;;2.93;0.77;;;22.90;41.80;;;;;;5048117;28;20190;-71
2022/11/18 02:05:04;;;;;;;3.80;0.73;;;22.80;42.20;;;;;;5035213;28;20187;-69
2022/11/18 02:07:35;;;;;;;2.37;0.70;;;23.20;40.80;;;;;;5035111;28;20626;-68
2022/11/18 02:10:05;;;;;;;1.20;0.70;;;23.30;40.80;;;;;;5035009;28;20239;-68
2022/11/18 02:12:33;;;;;;;1.33;0.70;;;23.20;40.40;;;;;;5035433;28;20180;-68
2022/11/18 02:15:01;;;;;;;2.73;0.63;;;23.40;39.80;;;;;;5035022;28;20180;-69
2022/11/18 02:17:53;;;;;;;1.47;0.63;;;23.30;39.90;;;;;;5033407;28;20169;-68
2022/11/18 02:20:30;;;;;;;2.80;0.70;;;23.00;40.40;;;;;;5034568;28;20183;-70
2022/11/18 02:23:34;;;;;;;7.03;1.03;;;23.40;40.00;;;;;;5052035;28;20176;-67
2022/11/18 02:26:26;;;;;;;5.20;0.80;;;23.50;41.30;;;;;;5044464;28;20183;-68
2022/11/18 02:28:54;;;;;;;3.63;0.80;;;23.60;41.60;;;;;;5035941;28;20183;-69
2022/11/18 02:31:31;;;;;;;2.00;0.77;;;23.70;41.40;;;;;;5034410;28;20212;-70
2022/11/18 02:34:31;;;;;;;3.47;1.00;;;23.70;41.20;;;;;;5034403;28;20176;-71
2022/11/18 02:37:21;;;;;;;5.47;1.10;;;23.10;41.60;;;;;;5034833;28;20176;-68
2022/11/18 02:40:06;;;;;;;3.23;0.63;;;23.30;42.30;;;;;;5034693;28;20196;-68
2022/11/18 02:42:36;;;;;;;3.93;0.63;;;23.50;42.50;;;;;;5034483;28;20211;-70
2022/11/18 02:45:10;;;;;;;3.87;0.90;;;23.80;41.70;;;;;;5034327;28;20315;-69
2022/11/18 02:47:40;;;;;;;3.17;1.10;;;24.20;41.20;;;;;;5034427;28;20578;-68
2022/11/18 02:50:11;;;;;;;5.83;1.33;;;24.10;42.30;;;;;;5034085;28;20195;-69
2022/11/18 02:52:41;;;;;;;5.97;1.27;;;24.00;43.20;;;;;;5032553;28;20172;-69
2022/11/18 02:55:12;;;;;;;2.40;1.03;;;23.80;42.80;;;;;;5034134;28;20173;-67
2022/11/18 02:57:42;;;;;;;2.97;0.90;;;23.20;42.80;;;;;;5034342;28;20169;-68
2022/11/18 03:00:11;;;;;;;11.03;1.20;;;23.10;44.40;;;;;;5049750;28;20199;-68
2022/11/18 03:02:47;;;;;;;6.50;1.60;;;23.60;43.70;;;;;;5033804;28;20569;-68
2022/11/18 03:05:45;;;;;;;5.17;1.10;;;23.90;43.40;;;;;;5033611;28;20180;-68
2022/11/18 03:08:59;;;;;;;4.03;0.97;;;24.40;42.00;;;;;;5037522;28;20192;-74
2022/11/18 03:11:51;;;;;;;4.10;1.00;;;24.40;39.70;;;;;;5025968;28;20617;-72
2022/11/18 03:14:37;;;;;;;3.97;0.87;;;24.40;39.60;;;;;;5033936;28;20169;-69
2022/11/18 03:17:14;;;;;;;2.10;0.97;;;24.40;39.10;;;;;;5032717;28;20703;-69
2022/11/18 03:20:30;;;;;;;4.50;0.67;;;24.00;40.30;;;;;;5034297;28;20179;-75
2022/11/18 03:23:24;;;;;;;4.13;0.90;;;24.30;40.80;;;;;;5034312;28;20247;-72
2022/11/18 03:26:15;;;;;;;4.90;0.77;;;24.50;40.90;;;;;;5034752;28;20188;-72
2022/11/18 03:29:06;;;;;;;5.97;1.07;;;24.80;39.30;;;;;;5039908;28;20203;-73
2022/11/18 03:31:46;;;;;;;1.20;0.63;;;25.00;39.50;;;;;;5043674;28;20208;-77
2022/11/18 03:35:13;;;;;;;3.23;0.70;;;24.60;41.50;;;;;;5052370;28;20180;-71
2022/11/18 03:37:43;;;;;;;1.90;0.73;;;24.50;40.20;;;;;;5048259;28;20193;-68
2022/11/18 03:40:55;;;;;;;3.83;0.70;;;24.40;40.50;;;;;;5050347;28;20532;-72
2022/11/18 03:47:21;;;;;;;3.90;0.80;;;24.70;40.90;;;;;;5034636;28;20293;-71
2022/11/18 03:50:05;;;;;;;4.33;0.80;;;24.70;41.10;;;;;;5046696;28;20772;-74
2022/11/18 03:52:36;;;;;;;2.77;0.80;;;24.80;40.20;;;;;;5048380;28;20225;-73
2022/11/18 03:55:17;;;;;;;3.23;0.73;;;25.20;40.80;;;;;;5032558;28;20177;-77
2022/11/18 03:58:11;;;;;;;5.00;1.00;;;25.30;40.50;;;;;;5033858;28;20184;-72
2022/11/18 04:00:44;;;;;;;1.00;0.50;;;25.00;40.40;;;;;;5033110;28;20177;-69
2022/11/18 04:03:12;;;;;;;2.60;0.70;;;25.50;40.00;;;;;;5042667;28;20252;-70
2022/11/18 04:05:42;;;;;;;6.40;0.87;;;25.00;40.20;;;;;;5031043;28;20177;-68
2022/11/18 04:08:17;;;;;;;4.77;0.90;;;25.00;40.90;;;;;;5034210;28;20700;-69
2022/11/18 04:10:53;;;;;;;4.07;0.70;;;25.00;41.10;;;;;;5032327;28;20661;-69
2022/11/18 04:13:30;;;;;;;2.23;0.60;;;24.90;40.20;;;;;;5072068;28;20561;-69
2022/11/18 04:15:57;;;;;;;2.53;0.73;;;25.30;38.70;;;;;;5042317;28;20179;-67
2022/11/18 04:18:25;;;;;;;3.13;0.90;;;25.00;38.10;;;;;;5034965;28;20181;-68
2022/11/18 04:20:52;;;;;;;2.50;0.83;;;24.90;39.20;;;;;;5032425;28;20666;-69
2022/11/18 04:23:20;;;;;;;4.03;0.63;;;25.40;39.70;;;;;;5035767;28;20184;-68
2022/11/18 04:25:47;;;;;;;5.20;0.90;;;25.80;39.00;;;;;;5044448;28;20584;-69
2022/11/18 04:28:14;;;;;;;2.23;0.90;;;25.70;38.60;;;;;;5050655;28;20190;-69
2022/11/18 04:30:42;;;;;;;2.80;0.50;;;25.90;37.30;;;;;;5032451;28;20196;-69
2022/11/18 04:33:09;;;;;;;5.37;0.87;;;26.00;37.10;;;;;;5063807;28;20522;-67
2022/11/18 04:35:36;;;;;;;2.20;0.80;;;25.90;38.40;;;;;;5032167;28;20180;-68
2022/11/18 04:38:04;;;;;;;3.87;0.80;;;26.00;40.10;;;;;;5042864;28;20555;-68
2022/11/18 04:40:31;;;;;;;5.53;1.30;;;25.60;40.00;;;;;;5040249;28;20183;-67
2022/11/18 04:42:58;;;;;;;5.90;1.30;;;25.50;39.80;;;;;;5051474;28;20188;-67
2022/11/18 04:45:26;;;;;;;4.53;0.77;;;25.40;39.70;;;;;;5044608;28;20352;-69
2022/11/18 04:47:53;;;;;;;4.07;0.80;;;25.10;39.60;;;;;;5049414;28;20188;-69
2022/11/18 04:50:21;;;;;;;7.00;1.00;;;25.40;40.30;;;;;;5049109;28;20235;-67
2022/11/18 04:52:48;;;;;;;3.17;0.90;;;25.90;39.40;;;;;;5046350;28;20187;-67
2022/11/18 04:55:15;;;;;;;4.17;0.93;;;25.60;36.60;;;;;;5045554;28;20192;-70
2022/11/18 04:57:43;;;;;;;5.73;0.77;;;25.40;38.70;;;;;;5050297;28;20708;-69
2022/11/18 05:00:11;;;;;;;2.87;0.93;;;25.80;37.90;;;;;;5056853;28;20171;-69
2022/11/18 05:02:38;;;;;;;2.03;0.80;;;25.30;37.90;;;;;;5050929;28;20539;-68
2022/11/18 05:05:06;;;;;;;3.87;0.63;;;25.90;38.80;;;;;;5051734;28;20179;-67
2022/11/18 05:07:34;;;;;;;2.67;0.60;;;26.10;39.10;;;;;;5050418;28;20651;-68
2022/11/18 05:10:01;;;;;;;9.43;6.03;;;25.50;39.60;;;;;;5054119;28;20211;-67
2022/11/18 05:15:15;;;;;;;1.77;0.60;;;26.30;37.90;;;;;;5044473;28;20310;-67
2022/11/18 05:17:42;;;;;;;3.77;0.70;;;26.30;38.20;;;;;;5046971;28;20248;-68
2022/11/18 05:20:10;;;;;;;4.03;0.60;;;26.80;36.20;;;;;;5042570;28;20176;-68
2022/11/18 05:22:38;;;;;;;2.43;0.70;;;26.60;34.80;;;;;;5046712;28;20527;-67
2022/11/18 05:25:06;;;;;;;5.33;1.13;;;26.80;37.20;;;;;;5048615;28;20260;-67
2022/11/18 05:27:33;;;;;;;4.20;0.93;;;27.30;37.20;;;;;;5048448;28;20183;-71
2022/11/18 05:30:01;;;;;;;2.90;1.00;;;27.10;39.00;;;;;;5049202;28;20665;-69
2022/11/18 05:32:28;;;;;;;4.37;1.30;;;26.70;39.50;;;;;;5049956;28;20188;-70
2022/11/18 05:34:55;;;;;;;4.97;2.00;;;26.60;40.60;;;;;;5047075;28;20180;-68
2022/11/18 05:37:23;;;;;;;2.93;1.10;;;25.90;41.50;;;;;;5050484;28;20717;-67
2022/11/18 05:39:50;;;;;;;6.00;1.10;;;26.30;40.20;;;;;;5056348;28;20176;-68
2022/11/18 05:45:03;;;;;;;4.30;0.90;;;25.70;39.80;;;;;;5050564;28;21005;-68
2022/11/18 05:47:58;;;;;;;41.10;4.07;;;25.80;39.20;;;;;;5056227;28;20551;-68
2022/11/18 05:50:17;;;;;;;7.37;1.13;;;26.00;38.60;;;;;;5053186;28;20215;-69
2022/11/18 05:52:44;;;;;;;16.87;1.67;;;25.50;39.20;;;;;;5040826;28;20263;-68
2022/11/18 05:55:13;;;;;;;5.27;1.00;;;26.00;38.80;;;;;;5052978;28;20659;-67
2022/11/18 05:57:40;;;;;;;3.83;0.73;;;26.70;36.70;;;;;;5049285;28;20230;-67
2022/11/18 06:00:08;;;;;;;5.13;0.90;;;26.70;37.40;;;;;;5054350;28;20199;-68
2022/11/18 06:02:36;;;;;;;1.57;0.80;;;26.40;37.10;;;;;;5052648;28;20184;-68
2022/11/18 06:05:04;;;;;;;2.43;0.90;;;26.30;38.10;;;;;;5043259;28;20230;-67
2022/11/18 06:07:43;;;;;;;4.13;0.60;;;26.40;38.00;;;;;;5046972;28;20268;-67
2022/11/18 06:10:22;;;;;;;5.67;0.67;;;26.60;37.50;;;;;;5053654;28;20207;-67
2022/11/18 06:12:53;;;;;;;2.20;0.70;;;26.40;38.50;;;;;;5052966;28;20229;-68
2022/11/18 06:15:37;;;;;;;3.37;0.80;;;27.00;37.60;;;;;;5048475;28;20199;-67
2022/11/18 06:18:20;;;;;;;3.67;0.77;;;26.80;36.90;;;;;;5048476;28;20233;-67
2022/11/18 06:20:48;;;;;;;9.00;1.10;;;26.90;37.80;;;;;;5053350;28;20176;-69
2022/11/18 06:23:16;;;;;;;5.50;1.00;;;26.30;40.50;;;;;;5052025;28;20291;-69
2022/11/18 06:25:43;;;;;;;3.27;0.93;;;25.30;41.50;;;;;;5050837;28;20623;-69
2022/11/18 06:28:12;;;;;;;3.23;0.80;;;25.80;41.10;;;;;;5050679;28;20186;-67
2022/11/18 06:30:40;;;;;;;3.83;1.00;;;25.30;41.50;;;;;;5051108;28;21690;-70
2022/11/18 06:33:08;;;;;;;3.00;1.00;;;25.70;41.00;;;;;;5052863;28;20246;-66
2022/11/18 06:35:35;;;;;;;3.20;0.97;;;25.90;41.70;;;;;;5048554;28;20184;-66
2022/11/18 06:38:03;;;;;;;3.87;1.00;;;25.90;41.00;;;;;;5048855;28;20180;-68
2022/11/18 06:40:31;;;;;;;7.30;1.00;;;26.50;39.10;;;;;;5050392;28;20226;-68
2022/11/18 06:46:54;;;;;;;5.67;0.80;;;26.90;38.60;;;;;;5050525;28;20664;-69
2022/11/18 06:48:31;;;;;;;3.87;0.87;;;26.60;39.60;;;;;;5049695;28;20191;-68
2022/11/18 06:50:59;;;;;;;2.23;0.63;;;26.40;39.20;;;;;;5053116;28;20219;-67
2022/11/18 06:53:26;;;;;;;3.93;0.90;;;26.00;40.80;;;;;;5047369;28;20587;-69
2022/11/18 06:55:53;;;;;;;4.73;0.80;;;25.70;41.20;;;;;;5052157;28;20176;-70
2022/11/18 06:58:21;;;;;;;4.67;0.80;;;25.90;41.40;;;;;;5052620;28;20180;-69
2022/11/18 07:00:48;;;;;;;5.83;1.30;;;24.90;43.20;;;;;;5052356;28;20188;-69
2022/11/18 07:03:15;;;;;;;6.20;1.33;;;23.70;46.20;;;;;;5051692;28;20180;-68
2022/11/18 07:05:43;;;;;;;2.07;1.03;;;24.00;45.10;;;;;;5049311;28;20238;-71
2022/11/18 07:08:10;;;;;;;6.87;1.10;;;24.60;44.40;;;;;;5044607;28;20180;-69
2022/11/18 07:10:37;;;;;;;3.13;1.10;;;24.10;45.20;;;;;;5034102;28;20197;-68
2022/11/18 07:13:05;;;;;;;4.00;1.03;;;24.40;44.90;;;;;;5033707;28;20177;-67
2022/11/18 07:15:34;;;;;;;2.27;1.00;;;24.10;45.60;;;;;;5040030;28;20201;-69
2022/11/18 07:18:01;;;;;;;4.70;0.90;;;24.10;45.40;;;;;;5038011;28;20195;-69
2022/11/18 07:20:28;;;;;;;2.17;1.00;;;24.00;45.50;;;;;;5031639;28;20541;-69
2022/11/18 07:22:55;;;;;;;5.40;1.13;;;23.80;46.40;;;;;;5037187;28;20195;-69
2022/11/18 07:25:23;;;;;;;4.17;0.83;;;23.20;47.90;;;;;;5046323;28;20539;-68
2022/11/18 07:27:50;;;;;;;4.57;1.13;;;22.70;48.80;;;;;;5038447;28;20720;-69
2022/11/18 07:30:18;;;;;;;7.13;0.97;;;22.40;50.10;;;;;;5033947;28;20216;-68
2022/11/18 07:32:45;;;;;;;3.07;1.13;;;21.70;51.50;;;;;;5033518;28;20230;-67
2022/11/18 07:35:13;;;;;;;3.97;1.00;;;21.20;53.40;;;;;;5033038;28;20557;-67
2022/11/18 07:37:40;;;;;;;5.63;1.00;;;21.30;53.40;;;;;;5033610;28;20184;-68
2022/11/18 07:40:08;;;;;;;2.40;0.70;;;21.10;53.30;;;;;;5033632;28;20184;-67
2022/11/18 07:42:41;;;;;;;13.23;1.80;;;20.90;54.30;;;;;;5046305;28;20296;-66
2022/11/18 07:45:12;;;;;;;3.30;1.07;;;20.80;54.60;;;;;;5053050;28;20218;-66
2022/11/18 07:47:39;;;;;;;6.57;1.90;;;20.80;53.60;;;;;;5039032;28;20188;-66
2022/11/18 07:50:07;;;;;;;4.93;1.23;;;20.90;54.00;;;;;;5032858;28;20200;-67
2022/11/18 07:52:34;;;;;;;4.97;1.33;;;20.50;56.70;;;;;;5033470;28;20185;-67
2022/11/18 07:55:01;;;;;;;8.63;2.27;;;20.30;57.50;;;;;;5033378;28;20169;-67
2022/11/18 07:57:29;;;;;;;4.10;1.13;;;20.10;58.50;;;;;;5032443;28;20254;-66
2022/11/18 07:59:56;;;;;;;7.40;2.10;;;20.10;58.90;;;;;;5046955;28;20184;-67
2022/11/18 08:02:23;;;;;;;4.37;1.47;;;20.10;59.70;;;;;;5031995;28;20189;-69
2022/11/18 08:04:51;;;;;;;10.57;1.90;;;20.00;59.60;;;;;;5032574;28;20191;-66
2022/11/18 08:07:18;;;;;;;3.83;1.10;;;20.20;59.70;;;;;;5033010;28;20211;-67
2022/11/18 08:09:45;;;;;;;4.33;1.10;;;20.00;57.70;;;;;;5033058;28;20181;-68
2022/11/18 08:12:13;;;;;;;6.47;1.50;;;20.00;57.40;;;;;;5032726;28;20186;-69
2022/11/18 08:14:40;;;;;;;4.23;1.10;;;19.60;58.70;;;;;;5033163;28;20177;-68
2022/11/18 08:17:08;;;;;;;5.97;1.07;;;19.50;59.70;;;;;;5038009;28;20180;-70
2022/11/18 08:19:35;;;;;;;6.03;1.87;;;19.50;59.80;;;;;;5048137;28;20643;-72
2022/11/18 08:22:02;;;;;;;7.67;1.60;;;19.80;59.30;;;;;;5050176;28;20179;-71
2022/11/18 08:24:30;;;;;;;6.73;1.77;;;19.50;59.70;;;;;;5044642;28;20274;-71
2022/11/18 08:26:57;;;;;;;6.90;1.50;;;19.30;60.60;;;;;;5044653;28;20183;-69
2022/11/18 08:29:24;;;;;;;3.97;1.30;;;19.20;61.00;;;;;;5051887;28;20207;-70
2022/11/18 08:31:52;;;;;;;4.23;1.30;;;19.10;61.10;;;;;;5034493;28;20204;-65
2022/11/18 08:34:19;;;;;;;7.13;1.87;;;19.10;60.40;;;;;;5037694;28;20218;-66
2022/11/18 08:36:46;;;;;;;3.90;1.67;;;18.90;60.90;;;;;;5036141;28;20184;-65
2022/11/18 08:39:14;;;;;;;8.37;1.50;;;18.80;61.00;;;;;;5032652;28;20177;-66
2022/11/18 08:41:43;;;;;;;5.70;1.70;;;18.60;60.90;;;;;;5038271;28;20179;-66
2022/11/18 08:44:13;;;;;;;6.10;1.50;;;18.70;61.40;;;;;;5039844;28;20590;-65
2022/11/18 08:46:44;;;;;;;5.63;1.40;;;18.60;62.20;;;;;;5032288;28;20667;-66
2022/11/18 08:49:11;;;;;;;8.90;1.63;;;18.50;62.80;;;;;;5034366;28;20207;-65
2022/11/18 08:51:39;;;;;;;8.67;1.43;;;18.50;63.10;;;;;;5047014;28;20578;-66
2022/11/18 08:54:06;;;;;;;5.60;1.77;;;18.30;63.60;;;;;;5032677;28;20205;-66
2022/11/18 08:56:33;;;;;;;5.77;1.53;;;18.40;64.30;;;;;;5032516;28;20181;-65
2022/11/18 08:59:01;;;;;;;5.23;1.40;;;18.40;64.80;;;;;;5040409;28;20182;-66
2022/11/18 09:01:28;;;;;;;5.47;1.30;;;18.50;64.90;;;;;;5036425;28;20173;-66
2022/11/18 09:03:56;;;;;;;5.53;1.30;;;18.30;65.40;;;;;;5032095;28;20341;-67
2022/11/18 09:06:24;;;;;;;4.60;1.40;;;18.30;65.60;;;;;;5031996;28;20187;-67
2022/11/18 09:08:52;;;;;;;6.27;1.70;;;18.30;65.90;;;;;;5032548;28;20181;-66
2022/11/18 09:11:24;;;;;;;6.80;1.80;;;18.30;65.90;;;;;;5043562;28;20219;-66
2022/11/18 09:13:57;;;;;;;3.70;1.50;;;18.30;65.80;;;;;;5039275;28;20177;-66
2022/11/18 09:16:30;;;;;;;8.33;1.60;;;18.20;65.70;;;;;;5040057;28;20208;-66
2022/11/18 09:18:58;;;;;;;6.20;1.63;;;18.20;65.80;;;;;;5031968;28;20551;-66
2022/11/18 09:21:26;;;;;;;8.47;1.83;;;18.30;66.20;;;;;;5031987;28;20173;-68
2022/11/18 09:23:54;;;;;;;9.13;1.70;;;18.30;66.20;;;;;;5032360;28;20177;-66
2022/11/18 09:26:23;;;;;;;5.80;1.57;;;18.30;66.30;;;;;;5048155;28;20241;-66
2022/11/18 09:28:53;;;;;;;6.30;1.40;;;18.00;67.10;;;;;;5044024;28;20188;-67
2022/11/18 09:31:21;;;;;;;8.67;1.70;;;18.10;67.20;;;;;;5032327;28;20208;-70
2022/11/18 09:33:48;;;;;;;6.70;1.53;;;18.00;67.10;;;;;;5031964;28;20204;-69
2022/11/18 09:36:22;;;;;;;9.30;1.50;;;17.90;67.30;;;;;;5045415;28;20192;-70
2022/11/18 09:38:50;;;;;;;6.43;1.53;;;17.90;67.70;;;;;;5044153;28;20258;-68
2022/11/18 09:41:26;;;;;;;4.20;1.33;;;17.90;67.50;;;;;;5035370;28;20188;-69
2022/11/18 09:44:14;;;;;;;5.90;2.00;;;18.00;67.30;;;;;;5043527;28;20183;-72
2022/11/18 09:46:59;;;;;;;6.73;1.40;;;18.10;67.00;;;;;;5035588;28;20232;-66
2022/11/18 09:49:36;;;;;;;7.43;1.73;;;17.90;67.30;;;;;;5035062;28;20184;-68
2022/11/18 09:52:28;;;;;;;5.13;1.60;;;17.80;67.30;;;;;;5039622;28;20199;-70
2022/11/18 09:54:55;;;;;;;4.93;1.80;;;17.80;67.60;;;;;;5035862;28;20207;-70
2022/11/18 09:57:36;;;;;;;8.13;1.53;;;17.70;68.00;;;;;;5035155;28;20191;-70
2022/11/18 10:00:23;;;;;;;5.43;1.30;;;17.80;67.70;;;;;;5049327;28;20515;-70
2022/11/18 10:03:00;;;;;;;6.03;1.63;;;17.80;67.50;;;;;;5035414;28;20267;-66
2022/11/18 10:05:39;;;;;;;5.47;1.50;;;17.80;68.10;;;;;;5040050;28;20179;-70
2022/11/18 10:08:24;;;;;;;3.90;1.53;;;17.90;67.50;;;;;;5047471;28;20263;-66
2022/11/18 10:11:09;;;;;;;9.13;2.03;;;17.80;67.80;;;;;;5039769;28;20291;-66
2022/11/18 10:14:03;;;;;;;9.43;1.70;;;17.70;68.50;;;;;;5034988;28;20199;-67
2022/11/18 10:17:08;;;;;;;7.30;1.87;;;17.70;69.00;;;;;;5035246;28;20579;-71
2022/11/18 10:19:38;;;;;;;6.67;1.63;;;17.60;69.10;;;;;;5041767;28;20578;-70
2022/11/18 10:22:29;;;;;;;5.90;1.53;;;17.70;69.10;;;;;;5049321;28;20188;-71
2022/11/18 10:24:59;;;;;;;5.20;1.30;;;17.60;69.10;;;;;;5053467;28;20215;-71
2022/11/18 10:27:37;;;;;;;4.87;2.00;;;17.70;69.00;;;;;;5048019;28;20266;-70
2022/11/18 10:30:17;;;;;;;4.93;1.73;;;17.60;69.10;;;;;;5042758;28;20212;-70
2022/11/18 10:33:01;;;;;;;5.67;1.77;;;17.50;69.50;;;;;;5045634;28;20189;-70
2022/11/18 10:35:33;;;;;;;3.97;1.67;;;17.60;69.70;;;;;;5035360;28;20180;-69
2022/11/18 10:38:03;;;;;;;3.77;1.53;;;17.50;70.10;;;;;;5042820;28;20603;-70
2022/11/18 10:40:33;;;;;;;3.27;1.57;;;17.40;69.80;;;;;;5034790;28;20173;-71
2022/11/18 10:43:00;;;;;;;5.17;1.60;;;17.40;70.20;;;;;;5050889;28;20211;-71
2022/11/18 10:45:32;;;;;;;5.30;1.83;;;17.50;70.00;;;;;;5045419;28;20262;-67
2022/11/18 10:48:08;;;;;;;6.73;1.60;;;17.40;70.20;;;;;;5048528;28;20184;-71
2022/11/18 10:50:37;;;;;;;4.60;1.77;;;17.30;70.20;;;;;;5036696;28;20231;-71
2022/11/18 10:53:07;;;;;;;6.87;1.90;;;17.30;70.40;;;;;;5034466;28;20172;-70
2022/11/18 10:55:34;;;;;;;6.97;1.57;;;17.30;70.40;;;;;;5034495;28;20208;-70
2022/11/18 10:58:09;;;;;;;9.73;2.17;;;17.30;70.30;;;;;;5042419;28;20615;-66
2022/11/18 11:00:48;;;;;;;6.13;2.43;;;17.30;70.90;;;;;;5033786;28;20650;-68
2022/11/18 11:03:27;;;;;;;6.70;2.40;;;17.30;70.80;;;;;;5033795;28;20647;-71
2022/11/18 11:06:22;;;;;;;7.60;2.37;;;17.30;71.20;;;;;;5044102;28;20183;-67
2022/11/18 11:08:55;;;;;;;8.20;2.57;;;17.30;71.20;;;;;;5037527;28;20192;-67
2022/11/18 11:11:29;;;;;;;11.93;2.57;;;17.30;71.00;;;;;;5034141;28;20247;-66
2022/11/18 11:14:16;;;;;;;6.57;2.23;;;17.30;71.40;;;;;;5033776;28;20229;-67
2022/11/18 11:17:12;;;;;;;4.63;2.33;;;17.20;71.60;;;;;;5034055;28;20234;-68
2022/11/18 11:19:39;;;;;;;8.23;1.90;;;17.30;71.60;;;;;;5041746;28;20242;-67
2022/11/18 11:22:13;;;;;;;5.97;2.03;;;17.20;71.90;;;;;;5040883;28;20180;-66
2022/11/18 11:24:42;;;;;;;4.57;2.00;;;17.20;71.60;;;;;;5035502;28;20183;-67
2022/11/18 11:27:25;;;;;;;5.13;1.73;;;17.20;71.80;;;;;;5037091;28;20257;-67
2022/11/18 11:30:10;;;;;;;5.80;1.63;;;17.20;72.20;;;;;;5038405;28;20173;-68
2022/11/18 11:33:16;;;;;;;6.60;1.80;;;17.10;72.40;;;;;;5036609;28;20624;-66
2022/11/18 11:36:31;;;;;;;5.23;1.70;;;17.10;72.30;;;;;;5046629;28;20196;-68
2022/11/18 11:39:26;;;;;;;5.40;1.30;;;17.00;73.30;;;;;;5046088;28;20195;-67
2022/11/18 11:42:09;;;;;;;8.77;2.13;;;17.00;72.80;;;;;;5040580;28;20601;-66
2022/11/18 11:44:58;;;;;;;4.83;1.80;;;17.00;72.80;;;;;;5037473;28;20200;-68
2022/11/18 11:47:55;;;;;;;6.70;1.67;;;17.00;73.00;;;;;;5032954;28;20285;-67
2022/11/18 11:50:57;;;;;;;7.57;2.03;;;17.00;73.30;;;;;;5032731;28;20270;-67
2022/11/18 11:53:37;;;;;;;6.67;2.03;;;16.90;73.10;;;;;;5045888;28;20552;-66
2022/11/18 11:56:29;;;;;;;6.57;2.13;;;16.90;73.00;;;;;;5050434;28;20676;-66
2022/11/18 11:59:06;;;;;;;6.50;1.60;;;16.80;73.30;;;;;;5072758;28;20539;-67
2022/11/18 12:02:07;;;;;;;6.40;1.67;;;16.80;73.30;;;;;;5044632;28;20238;-71
2022/11/18 12:05:06;;;;;;;6.30;1.53;;;16.80;73.50;;;;;;5033481;28;20219;-66
2022/11/18 12:07:46;;;;;;;3.97;1.40;;;16.80;73.50;;;;;;5040377;28;20274;-66
2022/11/18 12:10:19;;;;;;;3.80;1.77;;;16.80;73.40;;;;;;5033385;28;20203;-69
2022/11/18 12:13:16;;;;;;;11.23;1.93;;;16.80;73.50;;;;;;5033029;28;20214;-66
2022/11/18 12:16:08;;;;;;;5.47;1.67;;;16.70;73.70;;;;;;5037151;28;20194;-68
2022/11/18 12:18:48;;;;;;;3.77;1.53;;;16.70;74.00;;;;;;5033729;28;20176;-67
2022/11/18 12:21:45;;;;;;;5.20;1.63;;;16.70;74.20;;;;;;5034559;28;20253;-67
2022/11/18 12:24:37;;;;;;;5.50;1.90;;;16.70;74.40;;;;;;5032905;28;20180;-66
2022/11/18 12:27:12;;;;;;;3.73;1.47;;;16.70;74.40;;;;;;5043054;28;20180;-66
2022/11/18 12:29:44;;;;;;;5.93;1.60;;;16.60;74.20;;;;;;5035958;28;20542;-66
2022/11/18 12:32:28;;;;;;;5.37;1.60;;;16.50;74.50;;;;;;5032669;28;20212;-66
2022/11/18 12:35:13;;;;;;;4.67;1.70;;;16.50;74.90;;;;;;5032407;28;20186;-65
2022/11/18 12:37:53;;;;;;;4.47;1.60;;;16.50;74.80;;;;;;5032757;28;20631;-66
2022/11/18 12:40:52;;;;;;;6.83;1.60;;;16.40;75.20;;;;;;5033985;28;20215;-66
2022/11/18 12:46:30;;;;;;;6.30;1.53;;;16.40;75.80;;;;;;5032552;28;20590;-67
2022/11/18 12:48:57;;;;;;;6.23;1.60;;;16.30;76.00;;;;;;5032407;28;20184;-66
2022/11/18 12:51:25;;;;;;;9.20;2.13;;;16.30;76.00;;;;;;5043567;28;20216;-66
2022/11/18 12:53:53;;;;;;;4.43;1.80;;;16.30;75.80;;;;;;5044541;28;20534;-68
2022/11/18 12:56:26;;;;;;;5.77;1.97;;;16.40;76.10;;;;;;5032308;28;20195;-68
2022/11/18 12:58:56;;;;;;;5.17;2.20;;;16.30;75.90;;;;;;5049133;28;20344;-71
2022/11/18 13:01:34;;;;;;;5.73;1.80;;;16.30;76.10;;;;;;5038295;28;20634;-70
2022/11/18 13:04:14;;;;;;;5.97;1.80;;;16.20;76.40;;;;;;5036051;28;20168;-67
2022/11/18 13:06:42;;;;;;;6.47;1.63;;;16.30;76.60;;;;;;5041766;28;20661;-70
2022/11/18 13:09:22;;;;;;;8.13;1.80;;;16.30;76.80;;;;;;5036212;28;20191;-67
2022/11/18 13:12:18;;;;;;;3.87;1.80;;;16.30;76.30;;;;;;5045754;28;20214;-69
2022/11/18 13:17:51;;;;;;;6.77;1.87;;;16.20;76.50;;;;;;5049369;28;20328;-67
2022/11/18 13:20:38;;;;;;;6.60;1.53;;;16.20;76.80;;;;;;5046730;28;20261;-68
2022/11/18 13:26:27;;;;;;;8.73;2.80;;;16.10;77.10;;;;;;5049758;28;20201;-67
2022/11/18 13:29:02;;;;;;;6.67;2.23;;;16.10;76.80;;;;;;5051777;28;20523;-66
2022/11/18 13:31:44;;;;;;;4.87;1.90;;;16.10;77.00;;;;;;5055010;28;20223;-66
2022/11/18 13:34:21;;;;;;;8.60;2.50;;;16.00;77.00;;;;;;5054187;28;20190;-70
2022/11/18 13:36:51;;;;;;;8.57;2.53;;;16.00;77.00;;;;;;5055643;28;20196;-67
2022/11/18 13:39:32;;;;;;;7.73;2.10;;;15.90;77.40;;;;;;5051602;28;20194;-70
2022/11/18 13:42:02;;;;;;;8.43;2.37;;;16.00;77.70;;;;;;5050980;28;20175;-67
2022/11/18 13:44:38;;;;;;;9.77;2.07;;;16.00;77.30;;;;;;5054546;28;20176;-66
2022/11/18 13:47:41;;;;;;;9.67;2.30;;;16.00;77.50;;;;;;5050594;28;20253;-66
2022/11/18 13:50:23;;;;;;;9.13;2.07;;;16.00;77.50;;;;;;5047316;28;20624;-67
2022/11/18 13:53:28;;;;;;;8.47;2.40;;;15.90;77.50;;;;;;5045215;28;20184;-66
2022/11/18 13:56:02;;;;;;;6.40;2.53;;;15.90;77.90;;;;;;5046158;28;20178;-67